sensor_id;sensor_type;location;lat;lon;timestamp;pressure;altitude;pressure_sealevel;temperature;humidity
33075;BME280;19433;51.292;6.868;2023-03-15T00:00:20;99926.69;;;1.82;100.00
33075;BME280;19433;51.292;6.868;2023-03-15T00:02:45;99952.06;;;1.83;100.00
33075;BME280;19433;51.292;6.868;2023-03-15T00:05:11;99961.09;;;1.83;100.00
33075;BME280;19433;51.292;6.868;2023-03-15T00:07:37;99953.41;;;1.79;100.00
33075;BME280;19433;51.292;6.868;2023-03-15T00:10:03;99957.13;;;1.77;100.00
33075;BME280;19433;51.292;6.868;2023-03-15T00:12:28;99961.88;;;1.75;100.00
33075;BME280;19433;51.292;6.868;2023-03-15T00:14:54;99969.72;;;1.79;100.00
33075;BME280;19433;51.292;6.868;2023-03-15T00:17:19;99969.88;;;1.77;100.00
33075;BME280;19433;51.292;6.868;2023-03-15T00:19:47;99986.81;;;1.89;100.00
33075;BME280;19433;51.292;6.868;2023-03-15T00:22:12;99993.44;;;1.86;100.00
33075;BME280;19433;51.292;6.868;2023-03-15T00:24:39;99979.78;;;1.78;100.00
33075;BME280;19433;51.292;6.868;2023-03-15T00:27:04;100001.59;;;1.86;100.00
33075;BME280;19433;51.292;6.868;2023-03-15T00:29:30;99994.94;;;1.81;100.00
33075;BME280;19433;51.292;6.868;2023-03-15T00:31:55;99996.88;;;1.70;100.00
33075;BME280;19433;51.292;6.868;2023-03-15T00:34:21;100002.13;;;1.64;100.00
33075;BME280;19433;51.292;6.868;2023-03-15T00:36:50;99995.81;;;1.37;100.00
33075;BME280;19433;51.292;6.868;2023-03-15T00:39:19;100000.00;;;1.14;100.00
33075;BME280;19433;51.292;6.868;2023-03-15T00:41:51;99995.66;;;0.86;100.00
33075;BME280;19433;51.292;6.868;2023-03-15T01:23:11;100017.19;;;1.15;100.00
33075;BME280;19433;51.292;6.868;2023-03-15T02:32:53;100035.47;;;1.04;100.00
33075;BME280;19433;51.292;6.868;2023-03-15T02:37:54;100044.06;;;1.00;100.00
33075;BME280;19433;51.292;6.868;2023-03-15T03:03:36;100056.75;;;1.27;100.00
33075;BME280;19433;51.292;6.868;2023-03-15T04:15:46;100174.47;;;0.08;100.00
33075;BME280;19433;51.292;6.868;2023-03-15T04:18:11;100160.66;;;-0.18;100.00
33075;BME280;19433;51.292;6.868;2023-03-15T04:20:37;100167.06;;;-0.28;100.00
33075;BME280;19433;51.292;6.868;2023-03-15T04:23:03;100168.22;;;-0.31;100.00
33075;BME280;19433;51.292;6.868;2023-03-15T04:25:34;100178.34;;;-0.14;100.00
33075;BME280;19433;51.292;6.868;2023-03-15T04:27:59;100179.50;;;-0.16;100.00
33075;BME280;19433;51.292;6.868;2023-03-15T04:30:29;100188.91;;;-0.30;100.00
33075;BME280;19433;51.292;6.868;2023-03-15T04:32:58;100186.94;;;-0.18;100.00
33075;BME280;19433;51.292;6.868;2023-03-15T04:35:32;100175.75;;;-0.15;100.00
33075;BME280;19433;51.292;6.868;2023-03-15T04:37:59;100186.63;;;-0.15;100.00
33075;BME280;19433;51.292;6.868;2023-03-15T04:40:25;100176.06;;;-0.18;100.00
33075;BME280;19433;51.292;6.868;2023-03-15T04:42:51;100158.94;;;-0.19;100.00
33075;BME280;19433;51.292;6.868;2023-03-15T04:45:23;100173.47;;;-0.29;100.00
33075;BME280;19433;51.292;6.868;2023-03-15T04:47:49;100166.66;;;-0.33;100.00
33075;BME280;19433;51.292;6.868;2023-03-15T04:50:15;100174.94;;;-0.16;100.00
33075;BME280;19433;51.292;6.868;2023-03-15T04:52:42;100184.09;;;-0.17;100.00
33075;BME280;19433;51.292;6.868;2023-03-15T04:55:09;100187.50;;;-0.24;100.00
33075;BME280;19433;51.292;6.868;2023-03-15T04:57:35;100189.06;;;-0.03;100.00
33075;BME280;19433;51.292;6.868;2023-03-15T05:00:03;100189.34;;;-0.06;100.00
33075;BME280;19433;51.292;6.868;2023-03-15T05:02:32;100188.50;;;-0.06;100.00
33075;BME280;19433;51.292;6.868;2023-03-15T06:32:56;100336.06;;;1.09;100.00
33075;BME280;19433;51.292;6.868;2023-03-15T06:35:21;100342.69;;;0.96;100.00
33075;BME280;19433;51.292;6.868;2023-03-15T06:37:47;100337.69;;;1.01;100.00
33075;BME280;19433;51.292;6.868;2023-03-15T06:40:12;100338.22;;;1.15;100.00
33075;BME280;19433;51.292;6.868;2023-03-15T06:42:39;100337.16;;;1.25;100.00
33075;BME280;19433;51.292;6.868;2023-03-15T06:45:07;100335.28;;;1.35;100.00
33075;BME280;19433;51.292;6.868;2023-03-15T06:47:34;100347.44;;;1.41;100.00
33075;BME280;19433;51.292;6.868;2023-03-15T06:49:59;100353.59;;;1.43;100.00
33075;BME280;19433;51.292;6.868;2023-03-15T06:52:24;100353.72;;;1.51;100.00
33075;BME280;19433;51.292;6.868;2023-03-15T06:54:50;100354.66;;;1.60;100.00
33075;BME280;19433;51.292;6.868;2023-03-15T06:57:15;100358.84;;;1.54;100.00
33075;BME280;19433;51.292;6.868;2023-03-15T06:59:41;100376.88;;;1.65;100.00
33075;BME280;19433;51.292;6.868;2023-03-15T07:02:13;100389.88;;;1.71;100.00
33075;BME280;19433;51.292;6.868;2023-03-15T07:04:39;100395.88;;;1.74;100.00
33075;BME280;19433;51.292;6.868;2023-03-15T07:07:04;100399.47;;;1.75;100.00
33075;BME280;19433;51.292;6.868;2023-03-15T07:09:29;100397.88;;;1.72;100.00
33075;BME280;19433;51.292;6.868;2023-03-15T07:11:55;100392.56;;;1.44;100.00
33075;BME280;19433;51.292;6.868;2023-03-15T07:14:20;100394.00;;;1.38;100.00
33075;BME280;19433;51.292;6.868;2023-03-15T07:16:46;100403.88;;;1.49;100.00
33075;BME280;19433;51.292;6.868;2023-03-15T07:19:12;100399.66;;;1.64;100.00
33075;BME280;19433;51.292;6.868;2023-03-15T07:21:37;100408.50;;;1.75;100.00
33075;BME280;19433;51.292;6.868;2023-03-15T07:24:02;100423.19;;;1.92;100.00
33075;BME280;19433;51.292;6.868;2023-03-15T07:26:28;100424.56;;;2.06;100.00
33075;BME280;19433;51.292;6.868;2023-03-15T07:28:53;100420.91;;;2.15;100.00
33075;BME280;19433;51.292;6.868;2023-03-15T07:31:18;100431.38;;;2.20;100.00
33075;BME280;19433;51.292;6.868;2023-03-15T07:33:44;100431.00;;;2.32;100.00
33075;BME280;19433;51.292;6.868;2023-03-15T07:36:10;100439.66;;;2.45;100.00
33075;BME280;19433;51.292;6.868;2023-03-15T07:38:36;100436.34;;;2.52;100.00
33075;BME280;19433;51.292;6.868;2023-03-15T07:41:04;100435.25;;;2.62;100.00
33075;BME280;19433;51.292;6.868;2023-03-15T07:43:30;100447.03;;;2.80;100.00
33075;BME280;19433;51.292;6.868;2023-03-15T07:45:55;100451.16;;;2.67;100.00
33075;BME280;19433;51.292;6.868;2023-03-15T07:48:20;100451.16;;;2.67;100.00
33075;BME280;19433;51.292;6.868;2023-03-15T07:50:46;100458.84;;;2.54;100.00
33075;BME280;19433;51.292;6.868;2023-03-15T07:53:11;100470.47;;;2.56;100.00
33075;BME280;19433;51.292;6.868;2023-03-15T07:55:37;100469.69;;;2.63;100.00
33075;BME280;19433;51.292;6.868;2023-03-15T07:58:02;100479.00;;;2.70;100.00
33075;BME280;19433;51.292;6.868;2023-03-15T08:00:28;100486.50;;;2.86;100.00
33075;BME280;19433;51.292;6.868;2023-03-15T08:02:53;100476.50;;;2.95;100.00
33075;BME280;19433;51.292;6.868;2023-03-15T08:05:18;100489.22;;;3.04;100.00
33075;BME280;19433;51.292;6.868;2023-03-15T08:07:48;100490.16;;;3.30;100.00
33075;BME280;19433;51.292;6.868;2023-03-15T08:10:15;100489.91;;;3.67;100.00
33075;BME280;19433;51.292;6.868;2023-03-15T08:12:40;100503.16;;;4.06;100.00
33075;BME280;19433;51.292;6.868;2023-03-15T08:15:09;100508.91;;;3.95;100.00
33075;BME280;19433;51.292;6.868;2023-03-15T08:17:35;100511.56;;;3.86;100.00
33075;BME280;19433;51.292;6.868;2023-03-15T08:20:00;100508.00;;;4.12;100.00
33075;BME280;19433;51.292;6.868;2023-03-15T08:22:33;100509.22;;;4.59;100.00
33075;BME280;19433;51.292;6.868;2023-03-15T08:24:58;100527.84;;;7.14;100.00
33075;BME280;19433;51.292;6.868;2023-03-15T08:27:24;100536.75;;;9.89;90.46
33075;BME280;19433;51.292;6.868;2023-03-15T08:29:49;100547.81;;;10.38;77.73
33075;BME280;19433;51.292;6.868;2023-03-15T08:32:16;100545.94;;;9.53;79.63
33075;BME280;19433;51.292;6.868;2023-03-15T08:34:42;100542.81;;;8.55;86.49
33075;BME280;19433;51.292;6.868;2023-03-15T08:37:09;100552.81;;;7.58;88.32
33075;BME280;19433;51.292;6.868;2023-03-15T08:39:34;100553.19;;;6.93;95.17
33075;BME280;19433;51.292;6.868;2023-03-15T08:42:00;100562.28;;;6.94;94.96
33075;BME280;19433;51.292;6.868;2023-03-15T08:44:25;100559.53;;;6.47;97.17
33075;BME280;19433;51.292;6.868;2023-03-15T08:46:51;100555.63;;;6.33;98.21
33075;BME280;19433;51.292;6.868;2023-03-15T08:49:16;100563.47;;;7.30;95.95
33075;BME280;19433;51.292;6.868;2023-03-15T08:51:41;100565.16;;;8.23;88.31
33075;BME280;19433;51.292;6.868;2023-03-15T08:54:07;100572.06;;;8.19;85.61
33075;BME280;19433;51.292;6.868;2023-03-15T08:56:32;100574.84;;;7.73;83.80
33075;BME280;19433;51.292;6.868;2023-03-15T08:58:57;100583.38;;;7.32;89.65
33075;BME280;19433;51.292;6.868;2023-03-15T09:01:23;100582.34;;;6.55;95.18
33075;BME280;19433;51.292;6.868;2023-03-15T09:03:48;100594.56;;;6.37;96.23
33075;BME280;19433;51.292;6.868;2023-03-15T09:06:14;100594.09;;;6.25;97.77
33075;BME280;19433;51.292;6.868;2023-03-15T09:08:40;100586.53;;;5.78;95.42
33075;BME280;19433;51.292;6.868;2023-03-15T09:11:06;100589.59;;;5.75;96.92
33075;BME280;19433;51.292;6.868;2023-03-15T09:13:31;100586.19;;;6.22;100.00
33075;BME280;19433;51.292;6.868;2023-03-15T09:15:56;100598.75;;;9.72;83.30
33075;BME280;19433;51.292;6.868;2023-03-15T09:18:22;100606.31;;;13.75;66.38
33075;BME280;19433;51.292;6.868;2023-03-15T09:20:48;100620.56;;;16.83;54.46
33075;BME280;19433;51.292;6.868;2023-03-15T09:23:14;100630.13;;;19.10;47.01
33075;BME280;19433;51.292;6.868;2023-03-15T09:25:39;100637.13;;;20.97;40.44
33075;BME280;19433;51.292;6.868;2023-03-15T09:28:07;100649.19;;;22.64;35.39
33075;BME280;19433;51.292;6.868;2023-03-15T09:30:34;100647.13;;;22.19;31.33
33075;BME280;19433;51.292;6.868;2023-03-15T09:32:59;100654.50;;;22.35;33.71
33075;BME280;19433;51.292;6.868;2023-03-15T09:35:25;100666.13;;;24.74;32.69
33075;BME280;19433;51.292;6.868;2023-03-15T09:37:50;100665.53;;;24.33;29.66
33075;BME280;19433;51.292;6.868;2023-03-15T09:40:21;100668.47;;;24.08;30.86
33075;BME280;19433;51.292;6.868;2023-03-15T09:48:32;100649.31;;;16.01;42.83
33075;BME280;19433;51.292;6.868;2023-03-15T09:51:14;100642.72;;;13.47;52.14
33075;BME280;19433;51.292;6.868;2023-03-15T09:53:49;100640.63;;;11.30;56.12
33075;BME280;19433;51.292;6.868;2023-03-15T09:56:26;100633.81;;;9.93;65.04
33075;BME280;19433;51.292;6.868;2023-03-15T09:58:56;100626.84;;;8.66;68.99
33075;BME280;19433;51.292;6.868;2023-03-15T10:01:28;100620.84;;;8.25;76.26
33075;BME280;19433;51.292;6.868;2023-03-15T10:03:55;100627.88;;;11.76;58.75
33075;BME280;19433;51.292;6.868;2023-03-15T10:06:23;100636.22;;;15.71;46.44
33075;BME280;19433;51.292;6.868;2023-03-15T10:08:55;100647.16;;;17.09;35.57
33075;BME280;19433;51.292;6.868;2023-03-15T10:11:34;100646.78;;;17.41;35.72
33075;BME280;19433;51.292;6.868;2023-03-15T10:17:10;100635.94;;;17.68;37.43
33075;BME280;19433;51.292;6.868;2023-03-15T10:19:50;100647.56;;;18.05;39.82
33075;BME280;19433;51.292;6.868;2023-03-15T10:22:28;100649.63;;;18.09;38.77
33075;BME280;19433;51.292;6.868;2023-03-15T10:25:18;100646.19;;;16.50;38.88
33075;BME280;19433;51.292;6.868;2023-03-15T10:28:00;100648.69;;;18.32;36.22
33075;BME280;19433;51.292;6.868;2023-03-15T10:30:32;100666.94;;;21.87;31.38
33075;BME280;19433;51.292;6.868;2023-03-15T10:33:03;100660.25;;;21.93;29.79
33075;BME280;19433;51.292;6.868;2023-03-15T10:35:30;100677.41;;;24.20;27.26
33075;BME280;19433;51.292;6.868;2023-03-15T10:37:57;100675.22;;;25.05;26.12
33075;BME280;19433;51.292;6.868;2023-03-15T10:40:40;100680.44;;;22.58;24.72
33075;BME280;19433;51.292;6.868;2023-03-15T10:43:21;100662.66;;;20.58;28.78
33075;BME280;19433;51.292;6.868;2023-03-15T10:48:23;100658.31;;;15.30;41.19
33075;BME280;19433;51.292;6.868;2023-03-15T10:50:49;100646.69;;;12.86;46.04
33075;BME280;19433;51.292;6.868;2023-03-15T10:53:18;100652.47;;;12.72;46.09
33075;BME280;19433;51.292;6.868;2023-03-15T10:55:47;100647.72;;;11.45;50.00
33075;BME280;19433;51.292;6.868;2023-03-15T10:58:27;100655.09;;;14.65;45.17
33075;BME280;19433;51.292;6.868;2023-03-15T11:01:03;100653.91;;;19.62;35.31
33075;BME280;19433;51.292;6.868;2023-03-15T11:03:32;100683.03;;;23.15;27.93
33075;BME280;19433;51.292;6.868;2023-03-15T11:05:58;100693.94;;;25.88;24.66
33075;BME280;19433;51.292;6.868;2023-03-15T11:08:36;100701.50;;;27.80;21.87
33075;BME280;19433;51.292;6.868;2023-03-15T11:11:03;100696.13;;;29.19;20.17
33075;BME280;19433;51.292;6.868;2023-03-15T11:13:31;100690.50;;;28.69;20.55
33075;BME280;19433;51.292;6.868;2023-03-15T11:16:07;100696.97;;;25.68;24.00
33075;BME280;19433;51.292;6.868;2023-03-15T11:18:41;100692.25;;;22.44;27.93
33075;BME280;19433;51.292;6.868;2023-03-15T11:21:12;100666.56;;;20.57;30.84
33075;BME280;19433;51.292;6.868;2023-03-15T11:23:41;100686.97;;;21.96;29.71
33075;BME280;19433;51.292;6.868;2023-03-15T11:26:16;100684.13;;;17.86;32.33
33075;BME280;19433;51.292;6.868;2023-03-15T11:28:46;100687.22;;;19.59;33.39
33075;BME280;19433;51.292;6.868;2023-03-15T11:31:13;100697.28;;;18.43;32.37
33075;BME280;19433;51.292;6.868;2023-03-15T11:33:51;100695.81;;;17.48;32.84
33075;BME280;19433;51.292;6.868;2023-03-15T11:36:20;100697.28;;;17.39;31.41
33075;BME280;19433;51.292;6.868;2023-03-15T11:38:47;100702.63;;;18.16;28.48
33075;BME280;19433;51.292;6.868;2023-03-15T11:41:26;100703.56;;;21.13;26.98
33075;BME280;19433;51.292;6.868;2023-03-15T11:44:18;100708.69;;;23.08;27.33
33075;BME280;19433;51.292;6.868;2023-03-15T11:46:56;100709.69;;;21.79;26.00
33075;BME280;19433;51.292;6.868;2023-03-15T11:49:32;100714.19;;;19.82;28.30
33075;BME280;19433;51.292;6.868;2023-03-15T11:52:00;100701.03;;;17.68;28.73
33075;BME280;19433;51.292;6.868;2023-03-15T11:54:28;100706.97;;;16.48;31.78
33075;BME280;19433;51.292;6.868;2023-03-15T11:56:56;100698.00;;;17.11;29.75
33075;BME280;19433;51.292;6.868;2023-03-15T12:01:55;100703.13;;;16.01;31.68
33075;BME280;19433;51.292;6.868;2023-03-15T12:06:57;100686.28;;;12.08;37.75
33075;BME280;19433;51.292;6.868;2023-03-15T12:12:05;100689.38;;;12.79;38.11
33075;BME280;19433;51.292;6.868;2023-03-15T12:14:32;100692.09;;;14.65;37.54
33075;BME280;19433;51.292;6.868;2023-03-15T12:20:11;100712.25;;;21.12;26.39
33075;BME280;19433;51.292;6.868;2023-03-15T12:22:46;100718.81;;;23.45;26.34
33075;BME280;19433;51.292;6.868;2023-03-15T12:25:16;100707.78;;;19.86;25.69
33075;BME280;19433;51.292;6.868;2023-03-15T12:27:53;100703.47;;;18.73;27.63
33075;BME280;19433;51.292;6.868;2023-03-15T12:30:29;100706.94;;;20.08;26.41
33075;BME280;19433;51.292;6.868;2023-03-15T12:32:55;100695.91;;;21.35;26.37
33075;BME280;19433;51.292;6.868;2023-03-15T12:35:23;100705.19;;;22.51;25.37
33075;BME280;19433;51.292;6.868;2023-03-15T12:37:52;100702.19;;;21.48;23.89
33075;BME280;19433;51.292;6.868;2023-03-15T12:47:45;100699.84;;;21.87;25.63
33075;BME280;19433;51.292;6.868;2023-03-15T12:53:00;100714.00;;;25.34;20.28
33075;BME280;19433;51.292;6.868;2023-03-15T12:55:27;100717.69;;;27.15;18.44
33075;BME280;19433;51.292;6.868;2023-03-15T12:57:54;100720.38;;;27.06;19.34
33075;BME280;19433;51.292;6.868;2023-03-15T13:00:25;100707.28;;;27.43;16.73
33075;BME280;19433;51.292;6.868;2023-03-15T13:03:04;100718.00;;;28.60;16.26
33075;BME280;19433;51.292;6.868;2023-03-15T13:16:28;100698.28;;;24.34;21.66
33075;BME280;19433;51.292;6.868;2023-03-15T13:19:13;100694.97;;;24.71;21.04
33075;BME280;19433;51.292;6.868;2023-03-15T13:21:54;100700.53;;;22.87;22.56
33075;BME280;19433;51.292;6.868;2023-03-15T13:29:54;100685.06;;;20.31;23.64
33075;BME280;19433;51.292;6.868;2023-03-15T13:32:21;100687.38;;;21.62;22.52
33075;BME280;19433;51.292;6.868;2023-03-15T13:34:48;100693.06;;;21.77;23.82
33075;BME280;19433;51.292;6.868;2023-03-15T13:37:20;100702.56;;;21.24;22.65
33075;BME280;19433;51.292;6.868;2023-03-15T13:40:01;100691.31;;;19.51;22.02
33075;BME280;19433;51.292;6.868;2023-03-15T13:42:27;100685.22;;;18.71;24.09
33075;BME280;19433;51.292;6.868;2023-03-15T13:47:29;100697.81;;;21.67;22.44
33075;BME280;19433;51.292;6.868;2023-03-15T13:49:55;100701.16;;;20.14;23.03
33075;BME280;19433;51.292;6.868;2023-03-15T13:52:21;100691.56;;;16.46;25.38
33075;BME280;19433;51.292;6.868;2023-03-15T13:54:46;100675.59;;;13.56;30.92
33075;BME280;19433;51.292;6.868;2023-03-15T13:57:17;100674.56;;;11.99;33.74
33075;BME280;19433;51.292;6.868;2023-03-15T13:59:49;100686.38;;;12.60;32.44
33075;BME280;19433;51.292;6.868;2023-03-15T14:02:20;100686.00;;;15.25;30.76
33075;BME280;19433;51.292;6.868;2023-03-15T14:04:52;100673.34;;;16.43;29.31
33075;BME280;19433;51.292;6.868;2023-03-15T14:07:24;100706.16;;;17.71;23.51
33075;BME280;19433;51.292;6.868;2023-03-15T14:10:30;100700.81;;;18.10;25.40
33075;BME280;19433;51.292;6.868;2023-03-15T14:12:58;100697.88;;;15.75;26.39
33075;BME280;19433;51.292;6.868;2023-03-15T14:15:34;100684.25;;;14.56;29.98
33075;BME280;19433;51.292;6.868;2023-03-15T14:20:38;100693.59;;;16.50;28.95
33075;BME280;19433;51.292;6.868;2023-03-15T14:23:09;100698.84;;;16.17;27.84
33075;BME280;19433;51.292;6.868;2023-03-15T14:25:35;100690.81;;;15.91;28.43
33075;BME280;19433;51.292;6.868;2023-03-15T14:28:02;100689.66;;;13.61;31.19
33075;BME280;19433;51.292;6.868;2023-03-15T14:30:28;100692.75;;;12.41;34.52
33075;BME280;19433;51.292;6.868;2023-03-15T14:32:59;100683.84;;;11.37;36.33
33075;BME280;19433;51.292;6.868;2023-03-15T14:35:30;100685.31;;;10.21;37.19
33075;BME280;19433;51.292;6.868;2023-03-15T14:38:07;100684.22;;;9.50;38.73
33075;BME280;19433;51.292;6.868;2023-03-15T14:40:35;100690.13;;;8.89;39.81
33075;BME280;19433;51.292;6.868;2023-03-15T14:43:02;100686.63;;;8.95;41.01
33075;BME280;19433;51.292;6.868;2023-03-15T14:45:30;100691.34;;;8.86;40.16
33075;BME280;19433;51.292;6.868;2023-03-15T14:48:09;100701.41;;;8.79;38.67
33075;BME280;19433;51.292;6.868;2023-03-15T14:50:46;100705.88;;;8.20;41.07
33075;BME280;19433;51.292;6.868;2023-03-15T14:53:15;100701.97;;;7.83;43.11
33075;BME280;19433;51.292;6.868;2023-03-15T14:55:41;100705.03;;;7.88;42.76
33075;BME280;19433;51.292;6.868;2023-03-15T14:58:20;100697.78;;;8.64;43.24
33075;BME280;19433;51.292;6.868;2023-03-15T15:00:51;100700.22;;;9.26;42.72
33075;BME280;19433;51.292;6.868;2023-03-15T15:03:34;100706.22;;;9.29;43.43
33075;BME280;19433;51.292;6.868;2023-03-15T15:06:02;100711.94;;;9.78;41.55
33075;BME280;19433;51.292;6.868;2023-03-15T15:08:29;100713.97;;;10.06;40.19
33075;BME280;19433;51.292;6.868;2023-03-15T15:10:56;100716.91;;;10.40;38.20
33075;BME280;19433;51.292;6.868;2023-03-15T15:13:27;100703.94;;;10.41;43.01
33075;BME280;19433;51.292;6.868;2023-03-15T15:15:54;100708.56;;;10.34;40.73
33075;BME280;19433;51.292;6.868;2023-03-15T15:18:22;100701.94;;;9.92;42.97
33075;BME280;19433;51.292;6.868;2023-03-15T15:20:48;100703.78;;;9.70;39.71
33075;BME280;19433;51.292;6.868;2023-03-15T15:23:21;100704.13;;;9.46;38.55
33075;BME280;19433;51.292;6.868;2023-03-15T15:25:59;100693.19;;;9.08;39.95
33075;BME280;19433;51.292;6.868;2023-03-15T15:28:26;100701.09;;;9.26;43.57
33075;BME280;19433;51.292;6.868;2023-03-15T15:30:52;100693.38;;;9.36;42.38
33075;BME280;19433;51.292;6.868;2023-03-15T15:33:17;100695.84;;;9.31;43.17
33075;BME280;19433;51.292;6.868;2023-03-15T15:35:45;100690.13;;;9.33;43.93
33075;BME280;19433;51.292;6.868;2023-03-15T15:38:11;100693.38;;;9.36;42.84
33075;BME280;19433;51.292;6.868;2023-03-15T15:40:37;100683.97;;;9.45;46.86
33075;BME280;19433;51.292;6.868;2023-03-15T15:43:04;100673.31;;;9.28;40.69
33075;BME280;19433;51.292;6.868;2023-03-15T15:45:29;100678.00;;;9.12;38.96
33075;BME280;19433;51.292;6.868;2023-03-15T15:47:58;100679.28;;;9.02;39.33
33075;BME280;19433;51.292;6.868;2023-03-15T15:50:30;100671.41;;;8.84;46.05
33075;BME280;19433;51.292;6.868;2023-03-15T15:52:56;100684.53;;;8.97;41.24
33075;BME280;19433;51.292;6.868;2023-03-15T15:55:25;100682.44;;;8.99;40.66
33075;BME280;19433;51.292;6.868;2023-03-15T15:57:52;100679.00;;;8.82;40.54
33075;BME280;19433;51.292;6.868;2023-03-15T16:00:21;100670.47;;;8.39;42.25
33075;BME280;19433;51.292;6.868;2023-03-15T16:02:51;100665.16;;;8.38;43.00
33075;BME280;19433;51.292;6.868;2023-03-15T16:05:17;100676.50;;;8.12;44.33
33075;BME280;19433;51.292;6.868;2023-03-15T16:07:42;100666.97;;;8.00;43.99
33075;BME280;19433;51.292;6.868;2023-03-15T16:10:16;100663.19;;;8.01;45.07
33075;BME280;19433;51.292;6.868;2023-03-15T16:12:42;100660.50;;;7.93;41.93
33075;BME280;19433;51.292;6.868;2023-03-15T16:15:10;100674.34;;;7.76;44.33
33075;BME280;19433;51.292;6.868;2023-03-15T16:17:35;100671.78;;;7.75;42.51
33075;BME280;19433;51.292;6.868;2023-03-15T16:20:01;100666.56;;;7.80;41.72
33075;BME280;19433;51.292;6.868;2023-03-15T16:22:26;100662.84;;;7.73;42.46
33075;BME280;19433;51.292;6.868;2023-03-15T16:24:55;100665.34;;;7.60;42.39
33075;BME280;19433;51.292;6.868;2023-03-15T16:27:23;100676.78;;;7.40;42.66
33075;BME280;19433;51.292;6.868;2023-03-15T16:29:52;100668.47;;;7.49;43.64
33075;BME280;19433;51.292;6.868;2023-03-15T16:32:23;100673.22;;;7.32;45.29
33075;BME280;19433;51.292;6.868;2023-03-15T16:34:51;100675.13;;;7.23;44.74
33075;BME280;19433;51.292;6.868;2023-03-15T16:37:22;100679.88;;;6.90;46.18
33075;BME280;19433;51.292;6.868;2023-03-15T16:39:48;100679.22;;;6.80;46.24
33075;BME280;19433;51.292;6.868;2023-03-15T16:42:17;100675.66;;;6.72;47.75
33075;BME280;19433;51.292;6.868;2023-03-15T16:44:43;100667.09;;;6.50;49.50
33075;BME280;19433;51.292;6.868;2023-03-15T16:47:09;100674.63;;;6.48;50.20
33075;BME280;19433;51.292;6.868;2023-03-15T16:49:35;100676.72;;;6.38;50.73
33075;BME280;19433;51.292;6.868;2023-03-15T16:52:01;100680.16;;;6.08;51.90
33075;BME280;19433;51.292;6.868;2023-03-15T16:54:29;100691.97;;;6.08;51.37
33075;BME280;19433;51.292;6.868;2023-03-15T16:56:55;100690.53;;;5.80;53.04
33075;BME280;19433;51.292;6.868;2023-03-15T16:59:20;100693.91;;;5.57;54.88
33075;BME280;19433;51.292;6.868;2023-03-15T17:01:46;100689.81;;;5.61;55.31
33075;BME280;19433;51.292;6.868;2023-03-15T17:04:13;100696.09;;;5.46;55.89
33075;BME280;19433;51.292;6.868;2023-03-15T17:06:40;100689.38;;;5.32;55.93
33075;BME280;19433;51.292;6.868;2023-03-15T17:09:10;100686.63;;;4.98;57.89
33075;BME280;19433;51.292;6.868;2023-03-15T17:11:38;100701.78;;;4.84;59.98
33075;BME280;19433;51.292;6.868;2023-03-15T17:14:05;100705.47;;;4.75;61.70
33075;BME280;19433;51.292;6.868;2023-03-15T17:16:31;100684.72;;;4.65;59.70
33075;BME280;19433;51.292;6.868;2023-03-15T17:18:57;100710.44;;;4.72;59.63
33075;BME280;19433;51.292;6.868;2023-03-15T17:21:23;100696.53;;;4.65;59.74
33075;BME280;19433;51.292;6.868;2023-03-15T17:23:50;100687.63;;;4.37;62.33
33075;BME280;19433;51.292;6.868;2023-03-15T17:26:19;100691.41;;;4.44;61.07
33075;BME280;19433;51.292;6.868;2023-03-15T17:28:45;100701.88;;;4.23;63.35
33075;BME280;19433;51.292;6.868;2023-03-15T17:31:19;100699.28;;;4.04;64.38
33075;BME280;19433;51.292;6.868;2023-03-15T17:33:45;100710.06;;;3.87;66.22
33075;BME280;19433;51.292;6.868;2023-03-15T17:36:15;100699.91;;;3.62;68.70
33075;BME280;19433;51.292;6.868;2023-03-15T17:38:43;100720.41;;;3.48;70.27
33075;BME280;19433;51.292;6.868;2023-03-15T17:41:30;100713.81;;;3.41;68.43
33075;BME280;19433;51.292;6.868;2023-03-15T17:43:55;100716.84;;;3.38;68.91
33075;BME280;19433;51.292;6.868;2023-03-15T17:46:23;100709.53;;;3.39;68.64
33075;BME280;19433;51.292;6.868;2023-03-15T17:48:54;100725.41;;;3.53;67.07
33075;BME280;19433;51.292;6.868;2023-03-15T17:51:22;100714.16;;;3.56;67.52
33075;BME280;19433;51.292;6.868;2023-03-15T17:53:48;100721.13;;;3.50;67.00
33075;BME280;19433;51.292;6.868;2023-03-15T17:56:14;100712.66;;;3.44;69.21
33075;BME280;19433;51.292;6.868;2023-03-15T17:58:39;100724.34;;;3.36;69.87
33075;BME280;19433;51.292;6.868;2023-03-15T18:01:13;100718.53;;;3.22;68.70
33075;BME280;19433;51.292;6.868;2023-03-15T18:03:39;100723.31;;;3.20;68.95
33075;BME280;19433;51.292;6.868;2023-03-15T18:06:05;100728.28;;;3.24;68.62
33075;BME280;19433;51.292;6.868;2023-03-15T18:08:30;100737.28;;;3.07;70.14
33075;BME280;19433;51.292;6.868;2023-03-15T18:10:56;100718.56;;;2.85;73.02
33075;BME280;19433;51.292;6.868;2023-03-15T18:13:22;100726.84;;;2.93;71.50
33075;BME280;19433;51.292;6.868;2023-03-15T18:15:48;100736.59;;;3.05;69.27
33075;BME280;19433;51.292;6.868;2023-03-15T18:18:14;100736.59;;;2.95;71.03
33075;BME280;19433;51.292;6.868;2023-03-15T18:20:40;100740.22;;;2.86;71.82
33075;BME280;19433;51.292;6.868;2023-03-15T18:23:06;100724.59;;;2.78;72.08
33075;BME280;19433;51.292;6.868;2023-03-15T18:25:33;100736.25;;;2.71;71.83
33075;BME280;19433;51.292;6.868;2023-03-15T18:27:59;100739.84;;;2.62;71.92
33075;BME280;19433;51.292;6.868;2023-03-15T18:30:26;100747.28;;;2.79;69.38
33075;BME280;19433;51.292;6.868;2023-03-15T18:32:52;100743.59;;;2.61;71.61
33075;BME280;19433;51.292;6.868;2023-03-15T18:37:50;100751.03;;;2.68;70.60
33075;BME280;19433;51.292;6.868;2023-03-15T18:40:18;100744.59;;;2.69;69.95
33075;BME280;19433;51.292;6.868;2023-03-15T18:42:44;100724.19;;;2.64;69.53
33075;BME280;19433;51.292;6.868;2023-03-15T18:45:16;100753.34;;;2.63;71.13